sensor_id;sensor_type;location;lat;lon;timestamp;pressure;altitude;pressure_sealevel;temperature;humidity
74524;BME280;63074;44.696;10.358;2023-04-25T00:00:29;99122.38;;;10.81;100.00
74524;BME280;63074;44.696;10.358;2023-04-25T00:02:55;99121.03;;;11.26;100.00
74524;BME280;63074;44.696;10.358;2023-04-25T00:05:23;99130.34;;;11.75;100.00
74524;BME280;63074;44.696;10.358;2023-04-25T00:07:52;99121.03;;;12.08;100.00
74524;BME280;63074;44.696;10.358;2023-04-25T00:10:19;99116.97;;;12.01;100.00
74524;BME280;63074;44.696;10.358;2023-04-25T00:12:46;99117.50;;;12.18;100.00
74524;BME280;63074;44.696;10.358;2023-04-25T00:15:12;99119.13;;;12.24;100.00
74524;BME280;63074;44.696;10.358;2023-04-25T00:17:39;99112.66;;;12.15;100.00
74524;BME280;63074;44.696;10.358;2023-04-25T00:20:05;99105.13;;;12.17;100.00
74524;BME280;63074;44.696;10.358;2023-04-25T00:22:33;99105.00;;;10.99;100.00
74524;BME280;63074;44.696;10.358;2023-04-25T00:25:00;99104.41;;;11.44;100.00
74524;BME280;63074;44.696;10.358;2023-04-25T00:27:27;99113.91;;;11.67;100.00
74524;BME280;63074;44.696;10.358;2023-04-25T00:29:53;99109.97;;;12.00;100.00
74524;BME280;63074;44.696;10.358;2023-04-25T00:32:19;99114.53;;;11.99;100.00
74524;BME280;63074;44.696;10.358;2023-04-25T00:34:45;99114.56;;;12.09;100.00
74524;BME280;63074;44.696;10.358;2023-04-25T00:37:12;99113.75;;;12.09;100.00
74524;BME280;63074;44.696;10.358;2023-04-25T00:39:38;99109.41;;;11.88;100.00
74524;BME280;63074;44.696;10.358;2023-04-25T00:42:05;99117.06;;;11.43;100.00
74524;BME280;63074;44.696;10.358;2023-04-25T00:44:31;99115.97;;;11.39;100.00
74524;BME280;63074;44.696;10.358;2023-04-25T00:46:59;99121.28;;;10.77;100.00
74524;BME280;63074;44.696;10.358;2023-04-25T00:49:26;99113.91;;;10.57;100.00
74524;BME280;63074;44.696;10.358;2023-04-25T00:51:53;99108.88;;;10.71;100.00
74524;BME280;63074;44.696;10.358;2023-04-25T00:54:20;99120.06;;;10.95;100.00
74524;BME280;63074;44.696;10.358;2023-04-25T00:56:46;99117.38;;;11.00;100.00
74524;BME280;63074;44.696;10.358;2023-04-25T00:59:14;99113.56;;;10.86;100.00
74524;BME280;63074;44.696;10.358;2023-04-25T01:01:41;99109.69;;;10.34;100.00
74524;BME280;63074;44.696;10.358;2023-04-25T01:04:08;99107.16;;;10.55;100.00
74524;BME280;63074;44.696;10.358;2023-04-25T01:06:34;99105.47;;;10.43;100.00
74524;BME280;63074;44.696;10.358;2023-04-25T01:09:02;99101.81;;;10.23;100.00
74524;BME280;63074;44.696;10.358;2023-04-25T01:11:28;99106.56;;;10.47;100.00
74524;BME280;63074;44.696;10.358;2023-04-25T01:13:55;99104.38;;;10.39;100.00
74524;BME280;63074;44.696;10.358;2023-04-25T01:16:21;99099.25;;;10.80;100.00
74524;BME280;63074;44.696;10.358;2023-04-25T01:18:49;99097.00;;;10.62;100.00
74524;BME280;63074;44.696;10.358;2023-04-25T01:21:17;99096.84;;;9.82;100.00
74524;BME280;63074;44.696;10.358;2023-04-25T01:23:43;99099.53;;;9.82;100.00
74524;BME280;63074;44.696;10.358;2023-04-25T01:26:12;99087.44;;;10.12;100.00
74524;BME280;63074;44.696;10.358;2023-04-25T01:28:40;99097.91;;;10.08;100.00
74524;BME280;63074;44.696;10.358;2023-04-25T01:31:10;99094.22;;;9.61;100.00
74524;BME280;63074;44.696;10.358;2023-04-25T01:33:38;99097.88;;;10.03;100.00
74524;BME280;63074;44.696;10.358;2023-04-25T01:36:05;99100.09;;;10.16;100.00
74524;BME280;63074;44.696;10.358;2023-04-25T01:38:31;99098.88;;;10.24;100.00
74524;BME280;63074;44.696;10.358;2023-04-25T01:40:58;99098.44;;;10.37;100.00
74524;BME280;63074;44.696;10.358;2023-04-25T01:43:24;99102.41;;;10.30;100.00
74524;BME280;63074;44.696;10.358;2023-04-25T01:45:52;99106.72;;;10.31;100.00
74524;BME280;63074;44.696;10.358;2023-04-25T01:48:18;99103.34;;;10.19;100.00
74524;BME280;63074;44.696;10.358;2023-04-25T01:50:45;99104.13;;;9.87;100.00
74524;BME280;63074;44.696;10.358;2023-04-25T01:53:13;99107.56;;;9.82;100.00
74524;BME280;63074;44.696;10.358;2023-04-25T01:55:40;99111.09;;;10.10;100.00
74524;BME280;63074;44.696;10.358;2023-04-25T01:58:06;99110.84;;;10.16;100.00
74524;BME280;63074;44.696;10.358;2023-04-25T02:00:35;99096.56;;;9.52;100.00
74524;BME280;63074;44.696;10.358;2023-04-25T02:03:05;99095.03;;;9.88;100.00
74524;BME280;63074;44.696;10.358;2023-04-25T02:05:40;99096.50;;;10.01;100.00
74524;BME280;63074;44.696;10.358;2023-04-25T02:08:07;99094.16;;;10.09;100.00
74524;BME280;63074;44.696;10.358;2023-04-25T02:10:34;99097.09;;;10.08;100.00
74524;BME280;63074;44.696;10.358;2023-04-25T02:13:01;99105.66;;;10.05;100.00
74524;BME280;63074;44.696;10.358;2023-04-25T02:15:27;99112.91;;;10.04;100.00
74524;BME280;63074;44.696;10.358;2023-04-25T02:17:53;99108.91;;;10.07;100.00
74524;BME280;63074;44.696;10.358;2023-04-25T02:20:24;99101.09;;;10.32;100.00
74524;BME280;63074;44.696;10.358;2023-04-25T02:22:50;99101.50;;;9.92;100.00
74524;BME280;63074;44.696;10.358;2023-04-25T02:25:18;99093.81;;;9.74;100.00
74524;BME280;63074;44.696;10.358;2023-04-25T02:27:46;99096.69;;;10.21;100.00
74524;BME280;63074;44.696;10.358;2023-04-25T02:30:13;99101.75;;;9.91;100.00
74524;BME280;63074;44.696;10.358;2023-04-25T02:32:39;99105.31;;;9.96;100.00
74524;BME280;63074;44.696;10.358;2023-04-25T02:35:06;99107.06;;;9.86;100.00
74524;BME280;63074;44.696;10.358;2023-04-25T02:37:36;99100.78;;;9.48;100.00
74524;BME280;63074;44.696;10.358;2023-04-25T02:40:03;99094.47;;;9.59;100.00
74524;BME280;63074;44.696;10.358;2023-04-25T02:42:30;99091.94;;;9.74;100.00
74524;BME280;63074;44.696;10.358;2023-04-25T02:44:56;99096.44;;;9.96;100.00
74524;BME280;63074;44.696;10.358;2023-04-25T02:47:22;99086.81;;;10.00;100.00
74524;BME280;63074;44.696;10.358;2023-04-25T02:49:49;99081.56;;;10.15;100.00
74524;BME280;63074;44.696;10.358;2023-04-25T02:52:15;99074.47;;;9.99;100.00
74524;BME280;63074;44.696;10.358;2023-04-25T02:54:41;99070.31;;;9.59;100.00
74524;BME280;63074;44.696;10.358;2023-04-25T02:57:07;99070.94;;;9.66;100.00
74524;BME280;63074;44.696;10.358;2023-04-25T02:59:34;99066.69;;;9.00;100.00
74524;BME280;63074;44.696;10.358;2023-04-25T03:02:00;99063.16;;;8.94;100.00
74524;BME280;63074;44.696;10.358;2023-04-25T03:04:27;99062.53;;;9.09;100.00
74524;BME280;63074;44.696;10.358;2023-04-25T03:06:54;99055.66;;;8.96;100.00
74524;BME280;63074;44.696;10.358;2023-04-25T03:09:20;99054.72;;;8.86;100.00
74524;BME280;63074;44.696;10.358;2023-04-25T03:11:46;99056.78;;;9.22;100.00
74524;BME280;63074;44.696;10.358;2023-04-25T03:14:13;99055.41;;;9.20;100.00
74524;BME280;63074;44.696;10.358;2023-04-25T03:16:39;99056.28;;;9.03;100.00
74524;BME280;63074;44.696;10.358;2023-04-25T03:19:06;99052.44;;;9.16;100.00
74524;BME280;63074;44.696;10.358;2023-04-25T03:21:34;99043.50;;;9.10;100.00
74524;BME280;63074;44.696;10.358;2023-04-25T03:24:01;99039.22;;;9.09;100.00
74524;BME280;63074;44.696;10.358;2023-04-25T03:26:28;99053.75;;;9.13;100.00
74524;BME280;63074;44.696;10.358;2023-04-25T03:28:54;99044.34;;;8.72;100.00
74524;BME280;63074;44.696;10.358;2023-04-25T03:31:21;99046.03;;;8.40;100.00
74524;BME280;63074;44.696;10.358;2023-04-25T03:33:48;99051.91;;;8.37;100.00
74524;BME280;63074;44.696;10.358;2023-04-25T03:36:14;99052.38;;;8.51;100.00
74524;BME280;63074;44.696;10.358;2023-04-25T03:38:40;99056.78;;;9.00;100.00
74524;BME280;63074;44.696;10.358;2023-04-25T03:41:07;99049.13;;;9.09;100.00
74524;BME280;63074;44.696;10.358;2023-04-25T03:43:33;99047.88;;;9.17;100.00
74524;BME280;63074;44.696;10.358;2023-04-25T03:46:00;99051.72;;;9.47;100.00
74524;BME280;63074;44.696;10.358;2023-04-25T03:48:27;99050.94;;;9.03;100.00
74524;BME280;63074;44.696;10.358;2023-04-25T03:50:53;99050.47;;;9.33;100.00
74524;BME280;63074;44.696;10.358;2023-04-25T03:53:20;99044.00;;;9.56;100.00
74524;BME280;63074;44.696;10.358;2023-04-25T03:55:46;99044.28;;;9.33;100.00
74524;BME280;63074;44.696;10.358;2023-04-25T03:58:12;99043.22;;;9.34;100.00
74524;BME280;63074;44.696;10.358;2023-04-25T04:00:39;99047.34;;;9.68;100.00
74524;BME280;63074;44.696;10.358;2023-04-25T04:03:05;99049.28;;;9.73;100.00
74524;BME280;63074;44.696;10.358;2023-04-25T04:05:31;99054.72;;;9.56;100.00
74524;BME280;63074;44.696;10.358;2023-04-25T04:07:58;99056.13;;;9.37;100.00
74524;BME280;63074;44.696;10.358;2023-04-25T04:10:24;99057.59;;;9.23;100.00
74524;BME280;63074;44.696;10.358;2023-04-25T04:12:52;99056.16;;;8.93;100.00
74524;BME280;63074;44.696;10.358;2023-04-25T04:15:18;99055.59;;;9.13;100.00
74524;BME280;63074;44.696;10.358;2023-04-25T04:17:44;99060.19;;;9.39;100.00
74524;BME280;63074;44.696;10.358;2023-04-25T04:20:10;99069.81;;;9.62;100.00
74524;BME280;63074;44.696;10.358;2023-04-25T04:22:37;99064.94;;;9.81;100.00
74524;BME280;63074;44.696;10.358;2023-04-25T04:25:03;99061.81;;;9.67;100.00
74524;BME280;63074;44.696;10.358;2023-04-25T04:27:32;99068.91;;;9.78;100.00
74524;BME280;63074;44.696;10.358;2023-04-25T04:29:58;99070.91;;;9.39;100.00
74524;BME280;63074;44.696;10.358;2023-04-25T04:32:24;99080.16;;;9.27;100.00
74524;BME280;63074;44.696;10.358;2023-04-25T04:34:51;99072.84;;;9.44;100.00
74524;BME280;63074;44.696;10.358;2023-04-25T04:37:18;99080.91;;;9.44;100.00
74524;BME280;63074;44.696;10.358;2023-04-25T04:39:44;99082.28;;;9.46;100.00
74524;BME280;63074;44.696;10.358;2023-04-25T04:42:11;99085.47;;;9.22;100.00
74524;BME280;63074;44.696;10.358;2023-04-25T04:44:37;99094.22;;;8.95;100.00
74524;BME280;63074;44.696;10.358;2023-04-25T04:47:05;99102.94;;;8.86;100.00
74524;BME280;63074;44.696;10.358;2023-04-25T04:49:32;99097.59;;;9.07;100.00
74524;BME280;63074;44.696;10.358;2023-04-25T04:51:58;99101.16;;;9.13;100.00
74524;BME280;63074;44.696;10.358;2023-04-25T04:54:25;99101.97;;;9.13;100.00
74524;BME280;63074;44.696;10.358;2023-04-25T04:56:52;99117.41;;;8.68;100.00
74524;BME280;63074;44.696;10.358;2023-04-25T04:59:19;99116.59;;;8.84;100.00
74524;BME280;63074;44.696;10.358;2023-04-25T05:01:45;99116.75;;;8.94;100.00
74524;BME280;63074;44.696;10.358;2023-04-25T05:04:12;99121.56;;;8.75;100.00
74524;BME280;63074;44.696;10.358;2023-04-25T05:06:38;99121.41;;;8.65;100.00
74524;BME280;63074;44.696;10.358;2023-04-25T05:09:05;99112.56;;;9.03;100.00
74524;BME280;63074;44.696;10.358;2023-04-25T05:11:31;99112.00;;;9.01;100.00
74524;BME280;63074;44.696;10.358;2023-04-25T05:13:57;99110.41;;;8.84;100.00
74524;BME280;63074;44.696;10.358;2023-04-25T05:16:23;99116.19;;;9.36;100.00
74524;BME280;63074;44.696;10.358;2023-04-25T05:18:49;99123.47;;;9.62;100.00
74524;BME280;63074;44.696;10.358;2023-04-25T05:21:15;99132.50;;;9.56;100.00
74524;BME280;63074;44.696;10.358;2023-04-25T05:23:42;99130.31;;;9.75;100.00
74524;BME280;63074;44.696;10.358;2023-04-25T05:26:08;99134.38;;;9.77;100.00
74524;BME280;63074;44.696;10.358;2023-04-25T05:28:40;99145.78;;;9.68;100.00
74524;BME280;63074;44.696;10.358;2023-04-25T05:31:08;99148.09;;;9.81;100.00
74524;BME280;63074;44.696;10.358;2023-04-25T05:33:35;99151.59;;;9.81;100.00
74524;BME280;63074;44.696;10.358;2023-04-25T05:36:02;99157.66;;;9.99;100.00
74524;BME280;63074;44.696;10.358;2023-04-25T05:38:28;99157.66;;;9.99;100.00
74524;BME280;63074;44.696;10.358;2023-04-25T05:40:54;99163.63;;;9.79;100.00
74524;BME280;63074;44.696;10.358;2023-04-25T05:43:20;99162.09;;;10.10;100.00
74524;BME280;63074;44.696;10.358;2023-04-25T05:45:47;99170.72;;;10.44;100.00
74524;BME280;63074;44.696;10.358;2023-04-25T05:48:13;99166.69;;;10.41;100.00
74524;BME280;63074;44.696;10.358;2023-04-25T05:50:39;99176.50;;;10.58;100.00
74524;BME280;63074;44.696;10.358;2023-04-25T05:53:05;99174.72;;;10.73;100.00
74524;BME280;63074;44.696;10.358;2023-04-25T05:55:31;99183.13;;;10.82;100.00
74524;BME280;63074;44.696;10.358;2023-04-25T05:57:58;99177.47;;;10.78;100.00
74524;BME280;63074;44.696;10.358;2023-04-25T06:00:24;99188.75;;;10.80;100.00
74524;BME280;63074;44.696;10.358;2023-04-25T06:02:50;99187.59;;;10.71;100.00
74524;BME280;63074;44.696;10.358;2023-04-25T06:05:16;99189.97;;;10.63;100.00
74524;BME280;63074;44.696;10.358;2023-04-25T06:07:42;99191.34;;;10.65;100.00
74524;BME280;63074;44.696;10.358;2023-04-25T06:10:09;99205.41;;;10.77;100.00
74524;BME280;63074;44.696;10.358;2023-04-25T06:12:36;99204.16;;;10.90;100.00
74524;BME280;63074;44.696;10.358;2023-04-25T06:15:02;99209.34;;;10.70;100.00
74524;BME280;63074;44.696;10.358;2023-04-25T06:17:28;99213.88;;;10.96;100.00
74524;BME280;63074;44.696;10.358;2023-04-25T06:19:54;99214.53;;;10.76;100.00
74524;BME280;63074;44.696;10.358;2023-04-25T06:22:21;99210.50;;;10.79;100.00
74524;BME280;63074;44.696;10.358;2023-04-25T06:24:47;99211.28;;;10.74;100.00
74524;BME280;63074;44.696;10.358;2023-04-25T06:27:13;99218.63;;;10.84;100.00
74524;BME280;63074;44.696;10.358;2023-04-25T06:29:39;99215.69;;;10.86;100.00
74524;BME280;63074;44.696;10.358;2023-04-25T06:32:05;99218.22;;;11.02;100.00
74524;BME280;63074;44.696;10.358;2023-04-25T06:34:31;99226.06;;;11.09;100.00
74524;BME280;63074;44.696;10.358;2023-04-25T06:36:58;99225.88;;;11.21;100.00
74524;BME280;63074;44.696;10.358;2023-04-25T06:39:24;99227.63;;;11.42;100.00
74524;BME280;63074;44.696;10.358;2023-04-25T06:41:51;99232.75;;;11.48;100.00
74524;BME280;63074;44.696;10.358;2023-04-25T06:44:17;99220.91;;;11.44;100.00
74524;BME280;63074;44.696;10.358;2023-04-25T06:46:43;99232.25;;;11.57;100.00
74524;BME280;63074;44.696;10.358;2023-04-25T06:49:09;99231.19;;;11.58;100.00
74524;BME280;63074;44.696;10.358;2023-04-25T06:51:36;99223.66;;;11.60;100.00
74524;BME280;63074;44.696;10.358;2023-04-25T06:54:02;99225.84;;;11.68;100.00
74524;BME280;63074;44.696;10.358;2023-04-25T06:56:30;99219.88;;;11.50;100.00
74524;BME280;63074;44.696;10.358;2023-04-25T06:58:56;99230.91;;;11.59;100.00
74524;BME280;63074;44.696;10.358;2023-04-25T07:01:22;99230.63;;;11.56;100.00
74524;BME280;63074;44.696;10.358;2023-04-25T07:03:49;99227.22;;;11.70;100.00
74524;BME280;63074;44.696;10.358;2023-04-25T07:06:15;99231.25;;;11.73;100.00
74524;BME280;63074;44.696;10.358;2023-04-25T07:08:41;99231.81;;;11.75;100.00
74524;BME280;63074;44.696;10.358;2023-04-25T07:11:07;99231.34;;;11.88;100.00
74524;BME280;63074;44.696;10.358;2023-04-25T07:13:33;99238.09;;;11.91;100.00
74524;BME280;63074;44.696;10.358;2023-04-25T07:16:00;99226.25;;;11.92;100.00
74524;BME280;63074;44.696;10.358;2023-04-25T07:18:26;99226.59;;;12.10;100.00
74524;BME280;63074;44.696;10.358;2023-04-25T07:20:52;99226.84;;;12.04;100.00
74524;BME280;63074;44.696;10.358;2023-04-25T07:23:18;99227.88;;;11.93;100.00
74524;BME280;63074;44.696;10.358;2023-04-25T07:25:45;99223.06;;;12.00;100.00
74524;BME280;63074;44.696;10.358;2023-04-25T07:28:11;99231.41;;;12.03;100.00
74524;BME280;63074;44.696;10.358;2023-04-25T07:30:37;99235.75;;;12.20;100.00
74524;BME280;63074;44.696;10.358;2023-04-25T07:33:03;99232.59;;;12.38;100.00
74524;BME280;63074;44.696;10.358;2023-04-25T07:35:29;99228.16;;;11.96;100.00
74524;BME280;63074;44.696;10.358;2023-04-25T07:37:56;99232.69;;;11.91;100.00
74524;BME280;63074;44.696;10.358;2023-04-25T07:40:22;99231.41;;;11.98;100.00
74524;BME280;63074;44.696;10.358;2023-04-25T07:42:48;99233.81;;;12.00;100.00
74524;BME280;63074;44.696;10.358;2023-04-25T07:45:14;99241.03;;;11.79;100.00
74524;BME280;63074;44.696;10.358;2023-04-25T07:47:41;99247.75;;;11.87;100.00
74524;BME280;63074;44.696;10.358;2023-04-25T07:50:07;99236.22;;;11.96;100.00
74524;BME280;63074;44.696;10.358;2023-04-25T07:52:34;99243.00;;;12.04;100.00
74524;BME280;63074;44.696;10.358;2023-04-25T07:55:00;99244.63;;;12.05;100.00
74524;BME280;63074;44.696;10.358;2023-04-25T07:57:26;99250.63;;;11.70;100.00
74524;BME280;63074;44.696;10.358;2023-04-25T07:59:53;99264.88;;;11.70;100.00
74524;BME280;63074;44.696;10.358;2023-04-25T08:02:19;99263.31;;;11.74;100.00
74524;BME280;63074;44.696;10.358;2023-04-25T08:04:45;99264.34;;;11.68;100.00
74524;BME280;63074;44.696;10.358;2023-04-25T08:07:12;99264.00;;;12.07;100.00
74524;BME280;63074;44.696;10.358;2023-04-25T08:09:38;99261.41;;;12.37;100.00
74524;BME280;63074;44.696;10.358;2023-04-25T08:12:05;99268.06;;;12.14;100.00
74524;BME280;63074;44.696;10.358;2023-04-25T08:14:31;99266.28;;;12.50;100.00
74524;BME280;63074;44.696;10.358;2023-04-25T08:17:02;99262.00;;;12.85;100.00
74524;BME280;63074;44.696;10.358;2023-04-25T08:19:30;99263.06;;;13.04;100.00
74524;BME280;63074;44.696;10.358;2023-04-25T08:21:56;99265.00;;;13.19;100.00
74524;BME280;63074;44.696;10.358;2023-04-25T08:24:23;99269.00;;;13.37;100.00
74524;BME280;63074;44.696;10.358;2023-04-25T08:26:49;99273.31;;;13.43;100.00
74524;BME280;63074;44.696;10.358;2023-04-25T08:29:15;99267.97;;;13.23;100.00
74524;BME280;63074;44.696;10.358;2023-04-25T08:31:42;99271.75;;;13.16;100.00
74524;BME280;63074;44.696;10.358;2023-04-25T08:34:08;99275.78;;;12.99;100.00
74524;BME280;63074;44.696;10.358;2023-04-25T08:36:34;99274.44;;;13.27;100.00
74524;BME280;63074;44.696;10.358;2023-04-25T08:39:00;99275.47;;;13.46;100.00
74524;BME280;63074;44.696;10.358;2023-04-25T08:41:27;99282.75;;;13.45;100.00
74524;BME280;63074;44.696;10.358;2023-04-25T08:43:53;99290.31;;;13.48;100.00
74524;BME280;63074;44.696;10.358;2023-04-25T08:46:22;99291.34;;;13.63;100.00
74524;BME280;63074;44.696;10.358;2023-04-25T08:48:49;99297.88;;;13.31;100.00
74524;BME280;63074;44.696;10.358;2023-04-25T08:51:23;99285.47;;;12.95;100.00
74524;BME280;63074;44.696;10.358;2023-04-25T08:53:52;99292.47;;;13.06;100.00
74524;BME280;63074;44.696;10.358;2023-04-25T08:56:19;99299.75;;;13.56;100.00
74524;BME280;63074;44.696;10.358;2023-04-25T08:58:48;99301.59;;;13.76;100.00
74524;BME280;63074;44.696;10.358;2023-04-25T09:01:16;99297.56;;;13.68;100.00
74524;BME280;63074;44.696;10.358;2023-04-25T09:03:43;99301.59;;;13.71;100.00
74524;BME280;63074;44.696;10.358;2023-04-25T09:06:11;99299.97;;;13.75;100.00
74524;BME280;63074;44.696;10.358;2023-04-25T09:08:38;99305.59;;;13.94;100.00
74524;BME280;63074;44.696;10.358;2023-04-25T09:11:06;99309.72;;;13.66;100.00
74524;BME280;63074;44.696;10.358;2023-04-25T09:13:33;99311.81;;;13.89;100.00
74524;BME280;63074;44.696;10.358;2023-04-25T09:15:59;99310.41;;;14.07;100.00
74524;BME280;63074;44.696;10.358;2023-04-25T09:18:30;99312.56;;;14.10;100.00
74524;BME280;63074;44.696;10.358;2023-04-25T09:21:07;99314.13;;;14.21;100.00
74524;BME280;63074;44.696;10.358;2023-04-25T09:23:45;99314.09;;;14.41;100.00
74524;BME280;63074;44.696;10.358;2023-04-25T09:26:15;99332.91;;;14.57;100.00
74524;BME280;63074;44.696;10.358;2023-04-25T09:28:42;99338.28;;;14.62;100.00
74524;BME280;63074;44.696;10.358;2023-04-25T09:31:10;99330.41;;;14.70;100.00
74524;BME280;63074;44.696;10.358;2023-04-25T09:33:41;99331.13;;;14.81;100.00
74524;BME280;63074;44.696;10.358;2023-04-25T09:36:10;99324.56;;;14.97;100.00
74524;BME280;63074;44.696;10.358;2023-04-25T09:38:44;99335.66;;;14.96;100.00
74524;BME280;63074;44.696;10.358;2023-04-25T09:41:11;99341.75;;;15.11;100.00
74524;BME280;63074;44.696;10.358;2023-04-25T09:43:38;99340.84;;;15.26;100.00
74524;BME280;63074;44.696;10.358;2023-04-25T09:46:09;99327.44;;;15.40;100.00
74524;BME280;63074;44.696;10.358;2023-04-25T09:48:37;99325.16;;;15.57;100.00
74524;BME280;63074;44.696;10.358;2023-04-25T09:53:34;99333.47;;;15.90;100.00
74524;BME280;63074;44.696;10.358;2023-04-25T09:56:04;99335.47;;;15.50;100.00
74524;BME280;63074;44.696;10.358;2023-04-25T09:58:35;99339.25;;;15.83;100.00
74524;BME280;63074;44.696;10.358;2023-04-25T10:01:06;99344.63;;;16.12;100.00
74524;BME280;63074;44.696;10.358;2023-04-25T10:03:35;99345.44;;;16.12;100.00
74524;BME280;63074;44.696;10.358;2023-04-25T10:06:08;99347.25;;;16.17;100.00
74524;BME280;63074;44.696;10.358;2023-04-25T10:08:37;99353.25;;;16.38;100.00
74524;BME280;63074;44.696;10.358;2023-04-25T10:11:06;99339.25;;;16.07;100.00
74524;BME280;63074;44.696;10.358;2023-04-25T10:13:34;99349.75;;;16.13;100.00
74524;BME280;63074;44.696;10.358;2023-04-25T10:16:01;99333.25;;;16.52;100.00
74524;BME280;63074;44.696;10.358;2023-04-25T10:18:29;99336.44;;;16.60;100.00
74524;BME280;63074;44.696;10.358;2023-04-25T10:20:58;99337.84;;;17.13;100.00
74524;BME280;63074;44.696;10.358;2023-04-25T10:23:25;99341.00;;;16.83;100.00
74524;BME280;63074;44.696;10.358;2023-04-25T10:25:53;99335.59;;;16.64;100.00
74524;BME280;63074;44.696;10.358;2023-04-25T10:28:19;99329.91;;;16.61;100.00
74524;BME280;63074;44.696;10.358;2023-04-25T10:31:00;99321.13;;;16.87;100.00
74524;BME280;63074;44.696;10.358;2023-04-25T10:33:39;99324.78;;;17.15;100.00
74524;BME280;63074;44.696;10.358;2023-04-25T10:36:20;99328.06;;;17.12;100.00
74524;BME280;63074;44.696;10.358;2023-04-25T10:38:49;99327.16;;;17.36;100.00
74524;BME280;63074;44.696;10.358;2023-04-25T10:41:18;99316.34;;;17.63;100.00
74524;BME280;63074;44.696;10.358;2023-04-25T10:43:46;99327.41;;;17.85;100.00
74524;BME280;63074;44.696;10.358;2023-04-25T10:46:23;99321.84;;;17.12;100.00
74524;BME280;63074;44.696;10.358;2023-04-25T10:49:01;99308.59;;;17.57;100.00
74524;BME280;63074;44.696;10.358;2023-04-25T10:51:32;99329.09;;;17.81;100.00
74524;BME280;63074;44.696;10.358;2023-04-25T10:54:03;99326.00;;;17.88;100.00
74524;BME280;63074;44.696;10.358;2023-04-25T10:56:31;99327.81;;;18.06;100.00
74524;BME280;63074;44.696;10.358;2023-04-25T10:59:14;99325.88;;;18.20;100.00
74524;BME280;63074;44.696;10.358;2023-04-25T11:01:43;99307.97;;;17.13;100.00
74524;BME280;63074;44.696;10.358;2023-04-25T11:04:22;99304.09;;;17.66;100.00
74524;BME280;63074;44.696;10.358;2023-04-25T11:09:35;99315.22;;;17.83;100.00
74524;BME280;63074;44.696;10.358;2023-04-25T11:12:02;99298.22;;;17.45;100.00
74524;BME280;63074;44.696;10.358;2023-04-25T11:14:28;99294.97;;;18.03;100.00
74524;BME280;63074;44.696;10.358;2023-04-25T11:16:58;99297.28;;;18.09;100.00
74524;BME280;63074;44.696;10.358;2023-04-25T11:19:25;99311.47;;;18.34;100.00
74524;BME280;63074;44.696;10.358;2023-04-25T11:21:56;99305.84;;;18.03;100.00
74524;BME280;63074;44.696;10.358;2023-04-25T11:24:32;99310.69;;;18.83;100.00
74524;BME280;63074;44.696;10.358;2023-04-25T11:27:07;99325.44;;;19.27;98.65
74524;BME280;63074;44.696;10.358;2023-04-25T11:29:34;99329.66;;;19.55;96.51
74524;BME280;63074;44.696;10.358;2023-04-25T11:32:01;99340.28;;;19.20;95.02
74524;BME280;63074;44.696;10.358;2023-04-25T11:34:29;99327.25;;;18.73;97.40
74524;BME280;63074;44.696;10.358;2023-04-25T11:37:02;99315.06;;;18.70;98.39
74524;BME280;63074;44.696;10.358;2023-04-25T11:39:29;99311.44;;;18.75;97.63
74524;BME280;63074;44.696;10.358;2023-04-25T11:41:55;99312.56;;;19.72;96.98
74524;BME280;63074;44.696;10.358;2023-04-25T11:44:22;99329.66;;;19.86;92.91
74524;BME280;63074;44.696;10.358;2023-04-25T11:46:49;99339.41;;;20.27;93.36
74524;BME280;63074;44.696;10.358;2023-04-25T11:49:15;99351.06;;;19.03;91.84
74524;BME280;63074;44.696;10.358;2023-04-25T11:51:45;99325.66;;;18.72;93.75
74524;BME280;63074;44.696;10.358;2023-04-25T11:54:12;99332.09;;;19.96;92.91
74524;BME280;63074;44.696;10.358;2023-04-25T11:56:42;99340.53;;;20.17;88.84
74524;BME280;63074;44.696;10.358;2023-04-25T11:59:08;99328.97;;;20.85;89.29
74524;BME280;63074;44.696;10.358;2023-04-25T12:01:37;99335.13;;;19.95;91.46
74524;BME280;63074;44.696;10.358;2023-04-25T12:06:42;99348.06;;;19.80;85.98
74524;BME280;63074;44.696;10.358;2023-04-25T12:09:12;99343.38;;;20.60;84.50
74524;BME280;63074;44.696;10.358;2023-04-25T12:11:55;99355.00;;;21.00;82.90
74524;BME280;63074;44.696;10.358;2023-04-25T12:14:29;99348.38;;;19.79;85.36
74524;BME280;63074;44.696;10.358;2023-04-25T12:16:57;99328.00;;;20.24;86.20
74524;BME280;63074;44.696;10.358;2023-04-25T12:19:24;99340.06;;;21.06;82.80
74524;BME280;63074;44.696;10.358;2023-04-25T12:21:51;99360.16;;;21.36;80.29
74524;BME280;63074;44.696;10.358;2023-04-25T12:24:24;99356.78;;;21.31;77.11
74524;BME280;63074;44.696;10.358;2023-04-25T12:27:05;99357.66;;;21.69;74.80
74524;BME280;63074;44.696;10.358;2023-04-25T12:29:33;99366.09;;;21.47;74.46
74524;BME280;63074;44.696;10.358;2023-04-25T12:31:59;99369.88;;;22.27;74.70
74524;BME280;63074;44.696;10.358;2023-04-25T12:34:28;99361.16;;;22.34;72.44
74524;BME280;63074;44.696;10.358;2023-04-25T12:36:54;99358.34;;;22.80;72.48
74524;BME280;63074;44.696;10.358;2023-04-25T12:39:22;99358.25;;;22.39;72.20
74524;BME280;63074;44.696;10.358;2023-04-25T12:41:49;99378.75;;;21.69;73.27
74524;BME280;63074;44.696;10.358;2023-04-25T12:44:16;99341.88;;;21.83;69.29
74524;BME280;63074;44.696;10.358;2023-04-25T12:46:43;99343.88;;;22.71;69.49
74524;BME280;63074;44.696;10.358;2023-04-25T12:49:09;99337.97;;;22.90;67.45
74524;BME280;63074;44.696;10.358;2023-04-25T12:51:36;99322.25;;;23.20;66.04